createdAt,value
2023-02-27T00:00:03.709Z,957.51
2023-02-27T00:00:13.716Z,957.51
2023-02-27T00:00:23.705Z,957.51
2023-02-27T00:00:33.698Z,957.51
2023-02-27T00:00:43.701Z,957.51
2023-02-27T00:00:53.700Z,957.51
2023-02-27T00:01:03.711Z,957.52
2023-02-27T00:01:13.738Z,957.52
2023-02-27T00:01:23.985Z,957.53
2023-02-27T00:01:33.719Z,957.52
2023-02-27T00:01:43.704Z,957.53
2023-02-27T00:01:53.709Z,957.52
2023-02-27T00:02:03.708Z,957.52
2023-02-27T00:02:13.709Z,957.52
2023-02-27T00:02:23.725Z,957.52
2023-02-27T00:02:33.803Z,957.53
2023-02-27T00:02:43.757Z,957.53
2023-02-27T00:02:53.777Z,957.53
2023-02-27T00:03:03.720Z,957.53
2023-02-27T00:03:13.720Z,957.53
2023-02-27T00:03:23.725Z,957.54
2023-02-27T00:03:33.763Z,957.54
2023-02-27T00:03:43.756Z,957.54
2023-02-27T00:03:53.766Z,957.54
2023-02-27T00:04:03.784Z,957.54
2023-02-27T00:04:13.795Z,957.53
2023-02-27T00:04:23.718Z,957.53
2023-02-27T00:04:33.761Z,957.53
2023-02-27T00:04:43.722Z,957.53
2023-02-27T00:04:53.725Z,957.53
2023-02-27T00:05:03.734Z,957.53
2023-02-27T00:05:13.722Z,957.53
2023-02-27T00:05:23.743Z,957.53
2023-02-27T00:05:33.730Z,957.53
2023-02-27T00:05:43.728Z,957.53
2023-02-27T00:05:53.740Z,957.53
2023-02-27T00:06:03.728Z,957.53
2023-02-27T00:06:13.728Z,957.52
2023-02-27T00:06:23.740Z,957.52
2023-02-27T00:06:33.730Z,957.52
2023-02-27T00:06:43.732Z,957.53
2023-02-27T00:06:53.734Z,957.53
2023-02-27T00:07:03.733Z,957.53
2023-02-27T00:07:13.734Z,957.53
2023-02-27T00:07:23.748Z,957.53
2023-02-27T00:07:33.739Z,957.53
2023-02-27T00:07:43.740Z,957.53
2023-02-27T00:07:53.735Z,957.54
2023-02-27T00:08:03.742Z,957.54
2023-02-27T00:08:13.737Z,957.53
2023-02-27T00:08:23.770Z,957.54
2023-02-27T00:08:33.821Z,957.54
2023-02-27T00:08:43.784Z,957.54
2023-02-27T00:08:53.791Z,957.54
2023-02-27T00:09:03.791Z,957.54
2023-02-27T00:09:13.747Z,957.54
2023-02-27T00:09:23.743Z,957.54
2023-02-27T00:09:33.749Z,957.55
2023-02-27T00:09:43.757Z,957.55
2023-02-27T00:09:53.744Z,957.54
2023-02-27T00:10:03.752Z,957.55
2023-02-27T00:10:13.801Z,957.54
2023-02-27T00:10:23.753Z,957.54
2023-02-27T00:10:33.777Z,957.54
2023-02-27T00:10:43.766Z,957.54
2023-02-27T00:10:53.773Z,957.54
2023-02-27T00:11:03.778Z,957.53
2023-02-27T00:11:13.757Z,957.53
2023-02-27T00:11:23.779Z,957.53
2023-02-27T00:11:33.759Z,957.52
2023-02-27T00:11:43.770Z,957.52
2023-02-27T00:11:53.763Z,957.52
2023-02-27T00:12:03.769Z,957.52
2023-02-27T00:12:13.794Z,957.51
2023-02-27T00:12:23.765Z,957.51
2023-02-27T00:12:33.773Z,957.50
2023-02-27T00:12:43.764Z,957.51
2023-02-27T00:12:53.766Z,957.50
2023-02-27T00:13:03.771Z,957.50
2023-02-27T00:13:13.767Z,957.50
2023-02-27T00:13:23.804Z,957.50
2023-02-27T00:13:33.781Z,957.50
2023-02-27T00:13:43.769Z,957.51
2023-02-27T00:13:53.769Z,957.51
2023-02-27T00:14:03.770Z,957.51
2023-02-27T00:14:13.777Z,957.51
2023-02-27T00:14:23.776Z,957.51
2023-02-27T00:14:33.778Z,957.51
2023-02-27T00:14:43.774Z,957.50
2023-02-27T00:14:53.776Z,957.51
2023-02-27T00:15:03.774Z,957.50
2023-02-27T00:15:13.786Z,957.51
2023-02-27T00:15:23.781Z,957.50
2023-02-27T00:15:33.794Z,957.50
2023-02-27T00:15:43.799Z,957.51
2023-02-27T00:15:53.790Z,957.50
2023-02-27T00:16:03.815Z,957.50
2023-02-27T00:16:13.819Z,957.50
2023-02-27T00:16:23.837Z,957.49
2023-02-27T00:16:33.781Z,957.50
2023-02-27T00:16:43.789Z,957.50
2023-02-27T00:16:53.793Z,957.50
2023-02-27T00:17:03.799Z,957.49
2023-02-27T00:17:13.813Z,957.50
2023-02-27T00:17:23.791Z,957.49
2023-02-27T00:17:33.787Z,957.49
2023-02-27T00:17:43.791Z,957.50
2023-02-27T00:17:53.793Z,957.50
2023-02-27T00:18:03.835Z,957.49
2023-02-27T00:18:13.799Z,957.49
2023-02-27T00:18:23.812Z,957.49
2023-02-27T00:18:33.797Z,957.49
2023-02-27T00:18:43.794Z,957.50
2023-02-27T00:18:53.800Z,957.49
2023-02-27T00:19:03.811Z,957.49
2023-02-27T00:19:13.798Z,957.49
2023-02-27T00:19:23.807Z,957.49
2023-02-27T00:19:33.803Z,957.50
2023-02-27T00:19:43.799Z,957.50
2023-02-27T00:19:53.810Z,957.49
2023-02-27T00:20:03.821Z,957.49
2023-02-27T00:20:13.807Z,957.49
2023-02-27T00:20:23.816Z,957.49
2023-02-27T00:20:33.813Z,957.49
2023-02-27T00:20:43.819Z,957.49
2023-02-27T00:20:53.807Z,957.49
2023-02-27T00:21:03.806Z,957.49
2023-02-27T00:21:13.810Z,957.49
2023-02-27T00:21:24.040Z,957.49
2023-02-27T00:21:36.453Z,957.49
2023-02-27T00:21:43.814Z,957.48
2023-02-27T00:21:53.810Z,957.48
2023-02-27T00:22:03.815Z,957.48
2023-02-27T00:22:13.820Z,957.48
2023-02-27T00:22:23.818Z,957.48
2023-02-27T00:22:33.816Z,957.48
2023-02-27T00:22:43.824Z,957.48
2023-02-27T00:22:53.821Z,957.48
2023-02-27T00:23:03.822Z,957.48
2023-02-27T00:23:13.815Z,957.48
2023-02-27T00:23:23.833Z,957.47
2023-02-27T00:23:33.878Z,957.47
2023-02-27T00:23:43.823Z,957.48
2023-02-27T00:23:53.820Z,957.47
2023-02-27T00:24:03.841Z,957.48
2023-02-27T00:24:13.823Z,957.48
2023-02-27T00:24:23.838Z,957.48
2023-02-27T00:24:33.837Z,957.47
2023-02-27T00:24:43.843Z,957.48
2023-02-27T00:24:53.832Z,957.48
2023-02-27T00:25:03.833Z,957.48
2023-02-27T00:25:13.825Z,957.49
2023-02-27T00:25:23.843Z,957.49
2023-02-27T00:25:33.829Z,957.48
2023-02-27T00:25:43.837Z,957.49
2023-02-27T00:25:53.829Z,957.49
2023-02-27T00:26:03.842Z,957.49
2023-02-27T00:26:13.836Z,957.49
2023-02-27T00:26:23.834Z,957.49
2023-02-27T00:26:33.831Z,957.48
2023-02-27T00:26:43.839Z,957.49
2023-02-27T00:26:53.842Z,957.50
2023-02-27T00:27:03.837Z,957.50
2023-02-27T00:27:13.840Z,957.51
2023-02-27T00:27:23.839Z,957.50
2023-02-27T00:27:33.853Z,957.50
2023-02-27T00:27:43.837Z,957.50
2023-02-27T00:27:53.838Z,957.50
2023-02-27T00:28:03.838Z,957.50
2023-02-27T00:28:13.842Z,957.50
2023-02-27T00:28:23.874Z,957.50
2023-02-27T00:28:33.863Z,957.50
2023-02-27T00:28:43.853Z,957.50
2023-02-27T00:28:53.845Z,957.49
2023-02-27T00:29:03.854Z,957.49
2023-02-27T00:29:13.847Z,957.49
2023-02-27T00:29:23.848Z,957.49
2023-02-27T00:29:33.855Z,957.48
2023-02-27T00:29:43.849Z,957.48
2023-02-27T00:29:53.853Z,957.49
2023-02-27T00:30:03.855Z,957.49
2023-02-27T00:30:13.880Z,957.48
2023-02-27T00:30:23.921Z,957.48
2023-02-27T00:30:33.880Z,957.47
2023-02-27T00:30:43.891Z,957.47
2023-02-27T00:30:53.947Z,957.47
2023-02-27T00:31:03.937Z,957.47
2023-02-27T00:31:13.907Z,957.47
2023-02-27T00:31:23.910Z,957.46
2023-02-27T00:31:33.895Z,957.47
2023-02-27T00:31:44.021Z,957.47
2023-02-27T00:31:53.955Z,957.47
2023-02-27T00:32:03.995Z,957.47
2023-02-27T00:32:13.905Z,957.46
2023-02-27T00:32:23.881Z,957.46
2023-02-27T00:32:34.004Z,957.46
2023-02-27T00:32:43.894Z,957.46
2023-02-27T00:32:53.868Z,957.46
2023-02-27T00:33:03.870Z,957.46
2023-02-27T00:33:13.880Z,957.46
2023-02-27T00:33:23.869Z,957.45
2023-02-27T00:33:33.874Z,957.45
2023-02-27T00:33:43.888Z,957.45
2023-02-27T00:33:53.885Z,957.45
2023-02-27T00:34:03.871Z,957.45
2023-02-27T00:34:13.871Z,957.45
2023-02-27T00:34:23.880Z,957.46
2023-02-27T00:34:33.870Z,957.46
2023-02-27T00:34:43.882Z,957.45
2023-02-27T00:34:53.883Z,957.45
2023-02-27T00:35:03.871Z,957.45
2023-02-27T00:35:13.889Z,957.46
2023-02-27T00:35:23.880Z,957.46
2023-02-27T00:35:33.893Z,957.46
2023-02-27T00:35:43.891Z,957.45
2023-02-27T00:35:53.883Z,957.46
2023-02-27T00:36:03.910Z,957.46
2023-02-27T00:36:13.884Z,957.46
2023-02-27T00:36:23.886Z,957.46
2023-02-27T00:36:33.892Z,957.47
2023-02-27T00:36:43.906Z,957.47
2023-02-27T00:36:53.886Z,957.47
2023-02-27T00:37:03.906Z,957.46
2023-02-27T00:37:13.890Z,957.48
2023-02-27T00:37:23.886Z,957.47
2023-02-27T00:37:33.900Z,957.47
2023-02-27T00:37:43.892Z,957.47
2023-02-27T00:37:53.895Z,957.47
2023-02-27T00:38:03.889Z,957.47
2023-02-27T00:38:13.900Z,957.47
2023-02-27T00:38:23.890Z,957.48
2023-02-27T00:38:33.906Z,957.48
2023-02-27T00:38:43.896Z,957.48
2023-02-27T00:38:53.906Z,957.48
2023-02-27T00:39:03.897Z,957.48
2023-02-27T00:39:13.900Z,957.48
2023-02-27T00:39:23.894Z,957.48
2023-02-27T00:39:33.902Z,957.48
2023-02-27T00:39:43.900Z,957.48
2023-02-27T00:39:53.900Z,957.47
2023-02-27T00:40:03.904Z,957.47
2023-02-27T00:40:13.932Z,957.48
2023-02-27T00:40:23.912Z,957.48
2023-02-27T00:40:33.903Z,957.48
2023-02-27T00:40:43.899Z,957.47
2023-02-27T00:40:53.903Z,957.48
2023-02-27T00:41:03.927Z,957.48
2023-02-27T00:41:13.936Z,957.47
2023-02-27T00:41:24.129Z,957.47
2023-02-27T00:41:33.907Z,957.47
2023-02-27T00:41:43.915Z,957.47
2023-02-27T00:41:53.927Z,957.46
2023-02-27T00:42:03.915Z,957.46
2023-02-27T00:42:13.913Z,957.46
2023-02-27T00:42:23.911Z,957.46
2023-02-27T00:42:33.996Z,957.45
2023-02-27T00:42:43.921Z,957.45
2023-02-27T00:42:53.899Z,957.45
2023-02-27T00:43:03.924Z,957.45
2023-02-27T00:43:13.916Z,957.45
2023-02-27T00:43:23.929Z,957.45
2023-02-27T00:43:33.985Z,957.45
2023-02-27T00:43:43.998Z,957.45
2023-02-27T00:43:53.921Z,957.45
2023-02-27T00:44:03.927Z,957.45
2023-02-27T00:44:13.948Z,957.44
2023-02-27T00:44:23.924Z,957.44
2023-02-27T00:44:33.949Z,957.45
2023-02-27T00:44:43.934Z,957.45
2023-02-27T00:44:53.926Z,957.44
2023-02-27T00:45:03.938Z,957.44
2023-02-27T00:45:13.932Z,957.45
2023-02-27T00:45:23.941Z,957.44
2023-02-27T00:45:33.950Z,957.45
2023-02-27T00:45:43.933Z,957.44
2023-02-27T00:45:53.935Z,957.44
2023-02-27T00:46:03.934Z,957.44
2023-02-27T00:46:13.948Z,957.44
2023-02-27T00:46:23.995Z,957.45
2023-02-27T00:46:34.001Z,957.44
2023-02-27T00:46:43.963Z,957.44
2023-02-27T00:46:53.947Z,957.45
2023-02-27T00:47:03.941Z,957.44
2023-02-27T00:47:13.951Z,957.44
2023-02-27T00:47:23.946Z,957.44
2023-02-27T00:47:33.961Z,957.44
2023-02-27T00:47:43.992Z,957.44
2023-02-27T00:47:53.925Z,957.44
2023-02-27T00:48:03.949Z,957.44
2023-02-27T00:48:13.944Z,957.44
2023-02-27T00:48:23.942Z,957.44
2023-02-27T00:48:33.958Z,957.45
2023-02-27T00:48:43.979Z,957.45
2023-02-27T00:48:53.949Z,957.45
2023-02-27T00:49:03.954Z,957.46
2023-02-27T00:49:13.946Z,957.46
2023-02-27T00:49:23.957Z,957.46
2023-02-27T00:49:33.970Z,957.46
2023-02-27T00:49:43.963Z,957.46
2023-02-27T00:49:53.958Z,957.46
2023-02-27T00:50:03.959Z,957.47
2023-02-27T00:50:13.957Z,957.46
2023-02-27T00:50:23.965Z,957.47
2023-02-27T00:50:33.952Z,957.47
2023-02-27T00:50:44.008Z,957.47
2023-02-27T00:50:53.953Z,957.47
2023-02-27T00:51:03.964Z,957.47
2023-02-27T00:51:13.953Z,957.47
2023-02-27T00:51:24.086Z,957.48
2023-02-27T00:51:33.963Z,957.47
2023-02-27T00:51:43.962Z,957.47
2023-02-27T00:51:53.966Z,957.48
2023-02-27T00:52:03.963Z,957.47
2023-02-27T00:52:13.965Z,957.48
2023-02-27T00:52:23.965Z,957.48
2023-02-27T00:52:33.962Z,957.48
2023-02-27T00:52:43.976Z,957.48
2023-02-27T00:52:53.965Z,957.47
2023-02-27T00:53:03.971Z,957.49
2023-02-27T00:53:13.977Z,957.48
2023-02-27T00:53:23.971Z,957.48
2023-02-27T00:53:33.975Z,957.48
2023-02-27T00:53:43.977Z,957.48
2023-02-27T00:53:53.969Z,957.49
2023-02-27T00:54:03.975Z,957.48
2023-02-27T00:54:13.972Z,957.49
2023-02-27T00:54:23.984Z,957.48
2023-02-27T00:54:33.974Z,957.49
2023-02-27T00:54:44.039Z,957.49
2023-02-27T00:54:53.973Z,957.49
2023-02-27T00:55:03.973Z,957.49
2023-02-27T00:55:14.002Z,957.49
2023-02-27T00:55:26.228Z,957.49
2023-02-27T00:55:33.979Z,957.49
2023-02-27T00:55:43.981Z,957.49
2023-02-27T00:55:53.980Z,957.49
2023-02-27T00:56:03.979Z,957.49
2023-02-27T00:56:13.994Z,957.50
2023-02-27T00:56:23.991Z,957.49
2023-02-27T00:56:33.986Z,957.49
2023-02-27T00:56:43.999Z,957.49
2023-02-27T00:56:53.985Z,957.49
2023-02-27T00:57:03.987Z,957.49
2023-02-27T00:57:14.024Z,957.48
2023-02-27T00:57:24.016Z,957.48
2023-02-27T00:57:34.061Z,957.48
2023-02-27T00:57:44.043Z,957.48
2023-02-27T00:57:54.034Z,957.48
2023-02-27T00:58:03.991Z,957.48
2023-02-27T00:58:14.008Z,957.48
2023-02-27T00:58:23.996Z,957.48
2023-02-27T00:58:33.999Z,957.48
2023-02-27T00:58:44.050Z,957.47
2023-02-27T00:58:54.005Z,957.48
2023-02-27T00:59:04.006Z,957.48
2023-02-27T00:59:13.996Z,957.47
2023-02-27T00:59:24.002Z,957.47
2023-02-27T00:59:33.997Z,957.47
2023-02-27T00:59:43.999Z,957.48
2023-02-27T00:59:53.998Z,957.46
2023-02-27T01:00:04.005Z,957.47
2023-02-27T01:00:14.015Z,957.47
2023-02-27T01:00:24.009Z,957.47
2023-02-27T01:00:34.041Z,957.47
2023-02-27T01:00:44.021Z,957.46
2023-02-27T01:00:54.021Z,957.46
2023-02-27T01:01:04.039Z,957.47
2023-02-27T01:01:14.039Z,957.46
2023-02-27T01:01:24.080Z,957.46
2023-02-27T01:01:34.027Z,957.46
2023-02-27T01:01:44.017Z,957.46
2023-02-27T01:01:54.012Z,957.46
2023-02-27T01:02:04.013Z,957.47
2023-02-27T01:02:14.096Z,957.47
2023-02-27T01:02:24.039Z,957.46
2023-02-27T01:02:34.258Z,957.46
2023-02-27T01:02:44.059Z,957.46
2023-02-27T01:02:54.146Z,957.46
2023-02-27T01:03:04.024Z,957.46
2023-02-27T01:03:14.027Z,957.46
2023-02-27T01:03:24.019Z,957.46
2023-02-27T01:03:34.033Z,957.46
2023-02-27T01:03:44.026Z,957.46
2023-02-27T01:03:54.029Z,957.46
2023-02-27T01:04:04.034Z,957.47
2023-02-27T01:04:14.039Z,957.47
2023-02-27T01:04:24.037Z,957.47
2023-02-27T01:04:34.025Z,957.47
2023-02-27T01:04:44.038Z,957.46
2023-02-27T01:04:54.029Z,957.46
2023-02-27T01:05:04.035Z,957.47
2023-02-27T01:05:14.049Z,957.47
2023-02-27T01:05:24.044Z,957.47
2023-02-27T01:05:34.045Z,957.48
2023-02-27T01:05:44.045Z,957.47
2023-02-27T01:05:54.037Z,957.47
2023-02-27T01:06:04.037Z,957.47
2023-02-27T01:06:14.047Z,957.47
2023-02-27T01:06:24.034Z,957.47
2023-02-27T01:06:34.039Z,957.48
2023-02-27T01:06:44.042Z,957.48
2023-02-27T01:06:54.042Z,957.48
2023-02-27T01:07:04.049Z,957.48
2023-02-27T01:07:14.043Z,957.48
2023-02-27T01:07:24.041Z,957.48
2023-02-27T01:07:34.044Z,957.48
2023-02-27T01:07:44.043Z,957.48
2023-02-27T01:07:54.059Z,957.48
2023-02-27T01:08:04.054Z,957.49
2023-02-27T01:08:14.044Z,957.48
2023-02-27T01:08:24.049Z,957.48
2023-02-27T01:08:34.050Z,957.49
2023-02-27T01:08:44.051Z,957.49
2023-02-27T01:08:54.056Z,957.49
2023-02-27T01:09:04.072Z,957.49
2023-02-27T01:09:14.060Z,957.49
2023-02-27T01:09:24.055Z,957.49
2023-02-27T01:09:34.062Z,957.49
2023-02-27T01:09:44.053Z,957.49
2023-02-27T01:09:54.053Z,957.49
2023-02-27T01:10:04.066Z,957.49
2023-02-27T01:10:14.075Z,957.49
2023-02-27T01:10:24.063Z,957.49
2023-02-27T01:10:34.062Z,957.49
2023-02-27T01:10:44.062Z,957.49
2023-02-27T01:10:54.063Z,957.49
2023-02-27T01:11:04.075Z,957.49
2023-02-27T01:11:14.064Z,957.49
2023-02-27T01:11:24.334Z,957.50
2023-02-27T01:11:34.071Z,957.49
2023-02-27T01:11:44.071Z,957.49
2023-02-27T01:11:54.071Z,957.49
2023-02-27T01:12:04.080Z,957.48
2023-02-27T01:12:14.079Z,957.48
2023-02-27T01:12:24.072Z,957.48
2023-02-27T01:12:34.073Z,957.48
2023-02-27T01:12:44.071Z,957.48
2023-02-27T01:12:54.083Z,957.49
2023-02-27T01:13:04.079Z,957.49
2023-02-27T01:13:14.086Z,957.49
2023-02-27T01:13:24.077Z,957.49
2023-02-27T01:13:34.083Z,957.49
2023-02-27T01:13:44.086Z,957.49
2023-02-27T01:13:54.080Z,957.49
2023-02-27T01:14:04.081Z,957.49
2023-02-27T01:14:14.094Z,957.49
2023-02-27T01:14:24.081Z,957.49
2023-02-27T01:14:34.086Z,957.49
2023-02-27T01:14:44.083Z,957.49
2023-02-27T01:14:54.101Z,957.49
2023-02-27T01:15:04.084Z,957.49
2023-02-27T01:15:14.088Z,957.49
2023-02-27T01:15:24.093Z,957.49
2023-02-27T01:15:34.101Z,957.49
2023-02-27T01:15:44.084Z,957.49
2023-02-27T01:15:54.105Z,957.49
2023-02-27T01:16:04.127Z,957.49
2023-02-27T01:16:14.099Z,957.50
2023-02-27T01:16:24.136Z,957.50
2023-02-27T01:16:34.143Z,957.50
2023-02-27T01:16:44.154Z,957.50
2023-02-27T01:16:54.092Z,957.50
2023-02-27T01:17:04.104Z,957.50
2023-02-27T01:17:14.096Z,957.50
2023-02-27T01:17:24.093Z,957.50
2023-02-27T01:17:34.120Z,957.49
2023-02-27T01:17:44.096Z,957.50
2023-02-27T01:17:54.097Z,957.49
2023-02-27T01:18:04.105Z,957.49
2023-02-27T01:18:14.098Z,957.49
2023-02-27T01:18:24.101Z,957.50
2023-02-27T01:18:34.115Z,957.50
2023-02-27T01:18:44.103Z,957.51
2023-02-27T01:18:54.130Z,957.51
2023-02-27T01:19:04.104Z,957.51
2023-02-27T01:19:14.103Z,957.51
2023-02-27T01:19:24.112Z,957.51
2023-02-27T01:19:34.116Z,957.51
2023-02-27T01:19:44.107Z,957.52
2023-02-27T01:19:54.108Z,957.52
2023-02-27T01:20:04.129Z,957.51
2023-02-27T01:20:14.112Z,957.51
2023-02-27T01:20:24.115Z,957.51
2023-02-27T01:20:34.127Z,957.51
2023-02-27T01:20:44.122Z,957.51
2023-02-27T01:20:54.112Z,957.51
2023-02-27T01:21:04.119Z,957.51
2023-02-27T01:21:14.114Z,957.51
2023-02-27T01:21:24.398Z,957.51
2023-02-27T01:21:34.130Z,957.51
2023-02-27T01:21:44.117Z,957.51
2023-02-27T01:21:54.138Z,957.50
2023-02-27T01:22:04.119Z,957.50
2023-02-27T01:22:14.124Z,957.50
2023-02-27T01:22:24.127Z,957.51
2023-02-27T01:22:34.140Z,957.51
2023-02-27T01:22:44.124Z,957.51
2023-02-27T01:22:54.133Z,957.51
2023-02-27T01:23:04.154Z,957.51
2023-02-27T01:23:14.124Z,957.50
2023-02-27T01:23:24.130Z,957.50
2023-02-27T01:23:34.152Z,957.49
2023-02-27T01:23:44.133Z,957.49
2023-02-27T01:23:54.150Z,957.49
2023-02-27T01:24:04.132Z,957.49
2023-02-27T01:24:14.133Z,957.49
2023-02-27T01:24:24.131Z,957.49
2023-02-27T01:24:34.162Z,957.49
2023-02-27T01:24:44.138Z,957.49
2023-02-27T01:24:54.146Z,957.48
2023-02-27T01:25:04.141Z,957.48
2023-02-27T01:25:14.139Z,957.49
2023-02-27T01:25:24.137Z,957.48
2023-02-27T01:25:34.152Z,957.48
2023-02-27T01:25:44.139Z,957.48
2023-02-27T01:25:54.144Z,957.48
2023-02-27T01:26:04.148Z,957.48
2023-02-27T01:26:14.140Z,957.48
2023-02-27T01:26:24.150Z,957.48
2023-02-27T01:26:34.150Z,957.48
2023-02-27T01:26:44.146Z,957.47
2023-02-27T01:26:54.153Z,957.48
2023-02-27T01:27:04.144Z,957.48
2023-02-27T01:27:14.147Z,957.47
2023-02-27T01:27:24.147Z,957.47
2023-02-27T01:27:34.186Z,957.47
2023-02-27T01:27:44.155Z,957.47
2023-02-27T01:27:54.152Z,957.47
2023-02-27T01:28:04.155Z,957.47
2023-02-27T01:28:14.151Z,957.46
2023-02-27T01:28:24.156Z,957.46
2023-02-27T01:28:34.164Z,957.46
2023-02-27T01:28:44.157Z,957.46
2023-02-27T01:28:54.301Z,957.45
2023-02-27T01:29:06.345Z,957.45
2023-02-27T01:29:14.158Z,957.45
2023-02-27T01:29:24.164Z,957.45
2023-02-27T01:29:34.168Z,957.45
2023-02-27T01:29:44.161Z,957.45
2023-02-27T01:29:54.162Z,957.44
2023-02-27T01:30:04.168Z,957.44
2023-02-27T01:30:14.167Z,957.44
2023-02-27T01:30:24.223Z,957.43
2023-02-27T01:30:34.204Z,957.43
2023-02-27T01:30:44.218Z,957.43
2023-02-27T01:30:54.194Z,957.42
2023-02-27T01:31:04.173Z,957.42
2023-02-27T01:31:14.214Z,957.42
2023-02-27T01:31:24.314Z,957.42
2023-02-27T01:31:34.213Z,957.42
2023-02-27T01:31:44.275Z,957.41
2023-02-27T01:31:54.356Z,957.41
2023-02-27T01:32:04.310Z,957.41
2023-02-27T01:32:14.264Z,957.41
2023-02-27T01:32:24.333Z,957.41
2023-02-27T01:32:34.192Z,957.41
2023-02-27T01:32:44.303Z,957.41
2023-02-27T01:32:54.185Z,957.41
2023-02-27T01:33:04.181Z,957.40
2023-02-27T01:33:14.191Z,957.40
2023-02-27T01:33:24.188Z,957.40
2023-02-27T01:33:34.192Z,957.40
2023-02-27T01:33:44.191Z,957.39
2023-02-27T01:33:54.199Z,957.39
2023-02-27T01:34:04.197Z,957.39
2023-02-27T01:34:14.187Z,957.39
2023-02-27T01:34:24.193Z,957.39
2023-02-27T01:34:34.451Z,957.39
2023-02-27T01:34:44.200Z,957.39
2023-02-27T01:34:54.202Z,957.39
2023-02-27T01:35:04.194Z,957.38
2023-02-27T01:35:14.193Z,957.38
2023-02-27T01:35:24.193Z,957.38
2023-02-27T01:35:34.216Z,957.38
2023-02-27T01:35:44.215Z,957.38
2023-02-27T01:35:54.196Z,957.38
2023-02-27T01:36:04.199Z,957.38
2023-02-27T01:36:14.198Z,957.37
2023-02-27T01:36:24.203Z,957.37
2023-02-27T01:36:34.199Z,957.37
2023-02-27T01:36:44.207Z,957.36
2023-02-27T01:36:54.202Z,957.35
2023-02-27T01:37:04.218Z,957.35
2023-02-27T01:37:14.215Z,957.35
2023-02-27T01:37:24.203Z,957.36
2023-02-27T01:37:34.208Z,957.35
2023-02-27T01:37:44.216Z,957.35
2023-02-27T01:37:54.218Z,957.35
2023-02-27T01:38:04.207Z,957.35
2023-02-27T01:38:14.214Z,957.36
2023-02-27T01:38:24.210Z,957.35
2023-02-27T01:38:34.210Z,957.36
2023-02-27T01:38:44.219Z,957.36
2023-02-27T01:38:54.223Z,957.36
2023-02-27T01:39:04.210Z,957.35
2023-02-27T01:39:14.211Z,957.35
2023-02-27T01:39:24.215Z,957.36
2023-02-27T01:39:34.214Z,957.35
2023-02-27T01:39:44.226Z,957.36
2023-02-27T01:39:54.214Z,957.36
2023-02-27T01:40:04.220Z,957.36
2023-02-27T01:40:14.215Z,957.36
2023-02-27T01:40:24.218Z,957.36
2023-02-27T01:40:34.216Z,957.37
2023-02-27T01:40:44.230Z,957.37
2023-02-27T01:40:54.228Z,957.37
2023-02-27T01:41:04.221Z,957.37
2023-02-27T01:41:14.264Z,957.38
2023-02-27T01:41:24.459Z,957.38
2023-02-27T01:41:34.225Z,957.38
2023-02-27T01:41:44.229Z,957.38
2023-02-27T01:41:54.237Z,957.38
2023-02-27T01:42:04.226Z,957.38
2023-02-27T01:42:14.241Z,957.38
2023-02-27T01:42:24.230Z,957.38
2023-02-27T01:42:34.264Z,957.38
2023-02-27T01:42:44.249Z,957.39
2023-02-27T01:42:54.252Z,957.39
2023-02-27T01:43:04.233Z,957.40
2023-02-27T01:43:14.231Z,957.40
2023-02-27T01:43:24.240Z,957.41
2023-02-27T01:43:34.277Z,957.40
2023-02-27T01:43:44.238Z,957.40
2023-02-27T01:43:54.267Z,957.40
2023-02-27T01:44:04.259Z,957.40
2023-02-27T01:44:14.237Z,957.40
2023-02-27T01:44:24.241Z,957.41
2023-02-27T01:44:34.253Z,957.41
2023-02-27T01:44:44.239Z,957.41
2023-02-27T01:44:54.253Z,957.41
2023-02-27T01:45:04.254Z,957.41
2023-02-27T01:45:14.246Z,957.41
2023-02-27T01:45:24.247Z,957.42
2023-02-27T01:45:34.304Z,957.41
2023-02-27T01:45:44.304Z,957.42
2023-02-27T01:45:54.290Z,957.42
2023-02-27T01:46:04.324Z,957.42
2023-02-27T01:46:14.340Z,957.42
2023-02-27T01:46:24.265Z,957.42
2023-02-27T01:46:34.260Z,957.43
2023-02-27T01:46:44.268Z,957.43
2023-02-27T01:46:54.254Z,957.44
2023-02-27T01:47:04.263Z,957.43
2023-02-27T01:47:14.256Z,957.44
2023-02-27T01:47:24.266Z,957.43
2023-02-27T01:47:34.265Z,957.44
2023-02-27T01:47:44.285Z,957.43
2023-02-27T01:47:54.264Z,957.44
2023-02-27T01:48:04.271Z,957.44
2023-02-27T01:48:14.259Z,957.44
2023-02-27T01:48:24.264Z,957.44
2023-02-27T01:48:34.270Z,957.44
2023-02-27T01:48:44.272Z,957.44
2023-02-27T01:48:54.277Z,957.45
2023-02-27T01:49:04.285Z,957.45
2023-02-27T01:49:14.283Z,957.45
2023-02-27T01:49:24.296Z,957.45
2023-02-27T01:49:34.290Z,957.46
2023-02-27T01:49:44.268Z,957.46
2023-02-27T01:49:54.273Z,957.46
2023-02-27T01:50:04.277Z,957.45
2023-02-27T01:50:14.281Z,957.46
2023-02-27T01:50:24.295Z,957.46
2023-02-27T01:50:34.271Z,957.46
2023-02-27T01:50:44.279Z,957.46
2023-02-27T01:50:54.282Z,957.45
2023-02-27T01:51:04.280Z,957.45
2023-02-27T01:51:14.291Z,957.45
2023-02-27T01:51:24.555Z,957.45
2023-02-27T01:51:34.278Z,957.45
2023-02-27T01:51:44.280Z,957.44
2023-02-27T01:51:54.280Z,957.43
2023-02-27T01:52:04.309Z,957.43
2023-02-27T01:52:14.287Z,957.43
2023-02-27T01:52:24.286Z,957.43
2023-02-27T01:52:34.269Z,957.43
2023-02-27T01:52:44.287Z,957.43
2023-02-27T01:52:54.292Z,957.43
2023-02-27T01:53:04.290Z,957.42
2023-02-27T01:53:14.316Z,957.42
2023-02-27T01:53:24.291Z,957.42
2023-02-27T01:53:34.289Z,957.42
2023-02-27T01:53:44.291Z,957.42
2023-02-27T01:53:54.321Z,957.41
2023-02-27T01:54:04.293Z,957.42
2023-02-27T01:54:14.303Z,957.42
2023-02-27T01:54:24.300Z,957.42
2023-02-27T01:54:34.298Z,957.41
2023-02-27T01:54:44.305Z,957.41
2023-02-27T01:54:54.316Z,957.41
2023-02-27T01:55:04.301Z,957.41
2023-02-27T01:55:14.317Z,957.41
2023-02-27T01:55:24.312Z,957.41
2023-02-27T01:55:34.301Z,957.41
2023-02-27T01:55:44.301Z,957.41
2023-02-27T01:55:54.301Z,957.41
2023-02-27T01:56:04.301Z,957.41
2023-02-27T01:56:14.320Z,957.41
2023-02-27T01:56:24.337Z,957.41
2023-02-27T01:56:34.309Z,957.41
2023-02-27T01:56:44.306Z,957.40
2023-02-27T01:56:54.307Z,957.40
2023-02-27T01:57:04.305Z,957.40
2023-02-27T01:57:14.305Z,957.40
2023-02-27T01:57:24.323Z,957.41
2023-02-27T01:57:34.308Z,957.38
2023-02-27T01:57:44.310Z,957.39
2023-02-27T01:57:54.310Z,957.39
2023-02-27T01:58:04.314Z,957.40
2023-02-27T01:58:14.313Z,957.40
2023-02-27T01:58:24.356Z,957.39
2023-02-27T01:58:34.314Z,957.39
2023-02-27T01:58:44.314Z,957.39
2023-02-27T01:58:54.331Z,957.39
2023-02-27T01:59:04.315Z,957.39
2023-02-27T01:59:14.327Z,957.39
2023-02-27T01:59:24.339Z,957.39
2023-02-27T01:59:34.318Z,957.39
2023-02-27T01:59:44.329Z,957.40
2023-02-27T01:59:54.323Z,957.40
2023-02-27T02:00:04.324Z,957.40
2023-02-27T02:00:14.326Z,957.40
2023-02-27T02:00:24.336Z,957.40
2023-02-27T02:00:34.334Z,957.40
2023-02-27T02:00:44.330Z,957.40
2023-02-27T02:00:54.366Z,957.40
2023-02-27T02:01:04.347Z,957.39
2023-02-27T02:01:14.366Z,957.40
2023-02-27T02:01:24.618Z,957.40
2023-02-27T02:01:34.456Z,957.40
2023-02-27T02:01:44.330Z,957.40
2023-02-27T02:01:54.366Z,957.40
2023-02-27T02:02:04.355Z,957.40
2023-02-27T02:02:14.412Z,957.40
2023-02-27T02:02:24.398Z,957.40
2023-02-27T02:02:34.465Z,957.39
2023-02-27T02:02:44.350Z,957.39
2023-02-27T02:02:54.345Z,957.39
2023-02-27T02:03:04.340Z,957.40
2023-02-27T02:03:14.339Z,957.39
2023-02-27T02:03:24.358Z,957.40
2023-02-27T02:03:34.349Z,957.39
2023-02-27T02:03:44.342Z,957.40
2023-02-27T02:03:54.358Z,957.39
2023-02-27T02:04:04.346Z,957.38
2023-02-27T02:04:14.346Z,957.39
2023-02-27T02:04:24.352Z,957.39
2023-02-27T02:04:34.352Z,957.38
2023-02-27T02:04:44.350Z,957.38